sensor_id;sensor_type;location;lat;lon;timestamp;pressure;altitude;pressure_sealevel;temperature;humidity
32761;BME280;19126;47.472;7.850;2023-05-01T01:05:45;96462.16;;;11.02;76.03
32761;BME280;19126;47.472;7.850;2023-05-01T01:08:24;96455.34;;;10.92;75.09
32761;BME280;19126;47.472;7.850;2023-05-01T01:10:58;96449.34;;;10.83;73.34
32761;BME280;19126;47.472;7.850;2023-05-01T01:13:30;96450.72;;;10.79;71.77
32761;BME280;19126;47.472;7.850;2023-05-01T01:16:05;96451.69;;;10.78;69.39
32761;BME280;19126;47.472;7.850;2023-05-01T01:18:42;96447.63;;;10.76;67.91
32761;BME280;19126;47.472;7.850;2023-05-01T01:21:21;96452.69;;;10.77;66.14
32761;BME280;19126;47.472;7.850;2023-05-01T01:24:30;96445.44;;;10.79;66.01
32761;BME280;19126;47.472;7.850;2023-05-01T01:30:41;96442.28;;;10.69;63.71
32761;BME280;19126;47.472;7.850;2023-05-01T01:33:54;96438.66;;;10.70;61.13
32761;BME280;19126;47.472;7.850;2023-05-01T01:36:37;96435.22;;;10.69;59.89
32761;BME280;19126;47.472;7.850;2023-05-01T01:39:12;96436.09;;;10.62;58.95
32761;BME280;19126;47.472;7.850;2023-05-01T01:41:45;96431.19;;;10.59;57.95
32761;BME280;19126;47.472;7.850;2023-05-01T01:44:19;96430.38;;;10.58;56.84
32761;BME280;19126;47.472;7.850;2023-05-01T01:46:50;96430.84;;;10.62;56.03
32761;BME280;19126;47.472;7.850;2023-05-01T01:49:24;96437.09;;;10.61;54.80
32761;BME280;19126;47.472;7.850;2023-05-01T01:51:53;96429.38;;;10.59;55.02
32761;BME280;19126;47.472;7.850;2023-05-01T01:54:28;96435.47;;;10.60;54.24
32761;BME280;19126;47.472;7.850;2023-05-01T01:56:58;96435.34;;;10.53;53.95
32761;BME280;19126;47.472;7.850;2023-05-01T01:59:31;96432.56;;;10.54;53.32
32761;BME280;19126;47.472;7.850;2023-05-01T02:02:01;96423.69;;;10.55;53.22
32761;BME280;19126;47.472;7.850;2023-05-01T02:04:30;96428.47;;;10.52;53.17
32761;BME280;19126;47.472;7.850;2023-05-01T02:07:00;96421.50;;;10.59;52.56
32761;BME280;19126;47.472;7.850;2023-05-01T02:09:29;96421.84;;;10.56;52.11
32761;BME280;19126;47.472;7.850;2023-05-01T02:11:58;96422.84;;;10.55;51.82
32761;BME280;19126;47.472;7.850;2023-05-01T02:14:26;96424.03;;;10.52;52.18
32761;BME280;19126;47.472;7.850;2023-05-01T02:16:54;96422.22;;;10.53;51.95
32761;BME280;19126;47.472;7.850;2023-05-01T02:19:24;96424.19;;;10.51;52.25
32761;BME280;19126;47.472;7.850;2023-05-01T02:21:56;96419.59;;;10.53;52.09
32761;BME280;19126;47.472;7.850;2023-05-01T02:24:25;96421.22;;;10.54;52.36
32761;BME280;19126;47.472;7.850;2023-05-01T02:26:57;96426.94;;;10.58;53.29
32761;BME280;19126;47.472;7.850;2023-05-01T02:29:26;96424.69;;;10.54;53.68
32761;BME280;19126;47.472;7.850;2023-05-01T02:31:54;96419.59;;;10.53;54.19
32761;BME280;19126;47.472;7.850;2023-05-01T02:34:21;96420.59;;;10.52;53.72
32761;BME280;19126;47.472;7.850;2023-05-01T02:36:49;96424.19;;;10.51;54.53
32761;BME280;19126;47.472;7.850;2023-05-01T02:39:18;96420.31;;;10.47;54.29
32761;BME280;19126;47.472;7.850;2023-05-01T02:41:46;96421.78;;;10.49;54.24
32761;BME280;19126;47.472;7.850;2023-05-01T02:44:15;96422.28;;;10.45;55.03
32761;BME280;19126;47.472;7.850;2023-05-01T02:46:44;96419.31;;;10.48;54.76
32761;BME280;19126;47.472;7.850;2023-05-01T02:49:13;96424.28;;;10.43;55.04
32761;BME280;19126;47.472;7.850;2023-05-01T02:51:46;96426.25;;;10.40;54.77
32761;BME280;19126;47.472;7.850;2023-05-01T02:54:14;96423.97;;;10.37;53.80
32761;BME280;19126;47.472;7.850;2023-05-01T02:56:43;96423.16;;;10.37;54.56
32761;BME280;19126;47.472;7.850;2023-05-01T02:59:11;96422.16;;;10.38;54.30
32761;BME280;19126;47.472;7.850;2023-05-01T03:01:38;96421.34;;;10.37;54.55
32761;BME280;19126;47.472;7.850;2023-05-01T03:04:05;96416.91;;;10.38;55.00
32761;BME280;19126;47.472;7.850;2023-05-01T03:06:33;96415.44;;;10.35;54.71
32761;BME280;19126;47.472;7.850;2023-05-01T03:09:00;96417.28;;;10.35;54.66
32761;BME280;19126;47.472;7.850;2023-05-01T03:11:27;96414.28;;;10.38;54.13
32761;BME280;19126;47.472;7.850;2023-05-01T03:13:56;96404.78;;;10.37;53.94
32761;BME280;19126;47.472;7.850;2023-05-01T03:16:23;96405.94;;;10.34;54.30
32761;BME280;19126;47.472;7.850;2023-05-01T03:18:51;96407.94;;;10.32;53.62
32761;BME280;19126;47.472;7.850;2023-05-01T03:21:18;96402.50;;;10.34;54.40
32761;BME280;19126;47.472;7.850;2023-05-01T03:23:45;96412.81;;;10.35;53.65
32761;BME280;19126;47.472;7.850;2023-05-01T03:26:12;96400.06;;;10.32;53.56
32761;BME280;19126;47.472;7.850;2023-05-01T03:28:40;96407.56;;;10.35;53.41
32761;BME280;19126;47.472;7.850;2023-05-01T03:31:08;96399.88;;;10.34;53.94
32761;BME280;19126;47.472;7.850;2023-05-01T03:33:36;96398.06;;;10.34;54.10
32761;BME280;19126;47.472;7.850;2023-05-01T03:36:04;96388.75;;;10.32;53.53
32761;BME280;19126;47.472;7.850;2023-05-01T03:38:32;96389.56;;;10.32;53.15
32761;BME280;19126;47.472;7.850;2023-05-01T03:40:59;96401.88;;;10.32;52.93
32761;BME280;19126;47.472;7.850;2023-05-01T03:43:26;96397.50;;;10.24;54.03
32761;BME280;19126;47.472;7.850;2023-05-01T03:45:54;96396.84;;;10.22;54.12
32761;BME280;19126;47.472;7.850;2023-05-01T03:48:23;96392.59;;;10.21;53.88
32761;BME280;19126;47.472;7.850;2023-05-01T03:50:51;96398.84;;;10.20;53.68
32761;BME280;19126;47.472;7.850;2023-05-01T03:53:18;96391.97;;;10.19;53.06
32761;BME280;19126;47.472;7.850;2023-05-01T03:55:45;96398.84;;;10.20;51.86
32761;BME280;19126;47.472;7.850;2023-05-01T03:58:13;96395.41;;;10.19;51.39
32761;BME280;19126;47.472;7.850;2023-05-01T04:00:40;96393.94;;;10.17;51.34
32761;BME280;19126;47.472;7.850;2023-05-01T04:03:08;96382.81;;;10.15;50.78
32761;BME280;19126;47.472;7.850;2023-05-01T04:05:36;96384.78;;;10.12;50.26
32761;BME280;19126;47.472;7.850;2023-05-01T04:08:04;96391.03;;;10.11;49.75
32761;BME280;19126;47.472;7.850;2023-05-01T04:10:32;96390.69;;;10.15;49.38
32761;BME280;19126;47.472;7.850;2023-05-01T04:12:59;96396.94;;;10.14;49.07
32761;BME280;19126;47.472;7.850;2023-05-01T04:15:26;96390.25;;;10.11;48.25
32761;BME280;19126;47.472;7.850;2023-05-01T04:17:54;96387.41;;;10.12;48.01
32761;BME280;19126;47.472;7.850;2023-05-01T04:20:21;96387.97;;;10.08;47.38
32761;BME280;19126;47.472;7.850;2023-05-01T04:22:50;96387.13;;;10.07;46.84
32761;BME280;19126;47.472;7.850;2023-05-01T04:25:17;96395.00;;;10.07;46.68
32761;BME280;19126;47.472;7.850;2023-05-01T04:27:45;96394.38;;;10.05;45.62
32761;BME280;19126;47.472;7.850;2023-05-01T04:30:12;96400.44;;;10.06;44.08
32761;BME280;19126;47.472;7.850;2023-05-01T04:32:40;96398.81;;;10.05;44.35
32761;BME280;19126;47.472;7.850;2023-05-01T04:35:08;96408.97;;;10.08;44.49
32761;BME280;19126;47.472;7.850;2023-05-01T04:37:35;96401.09;;;10.08;44.08
32761;BME280;19126;47.472;7.850;2023-05-01T04:40:05;96403.06;;;10.06;44.57
32761;BME280;19126;47.472;7.850;2023-05-01T04:42:33;96404.22;;;10.03;44.26
32761;BME280;19126;47.472;7.850;2023-05-01T04:45:01;96410.94;;;10.06;44.39
32761;BME280;19126;47.472;7.850;2023-05-01T04:47:29;96414.38;;;10.06;44.59
32761;BME280;19126;47.472;7.850;2023-05-01T04:49:56;96406.97;;;10.10;42.94
32761;BME280;19126;47.472;7.850;2023-05-01T04:52:23;96415.00;;;10.08;43.51
32761;BME280;19126;47.472;7.850;2023-05-01T04:54:51;96410.13;;;10.05;42.93
32761;BME280;19126;47.472;7.850;2023-05-01T04:57:24;96413.38;;;10.07;43.41
32761;BME280;19126;47.472;7.850;2023-05-01T04:59:51;96409.97;;;10.07;42.32
32761;BME280;19126;47.472;7.850;2023-05-01T05:02:19;96420.63;;;10.05;42.94
32761;BME280;19126;47.472;7.850;2023-05-01T05:04:46;96415.38;;;10.05;42.48
32761;BME280;19126;47.472;7.850;2023-05-01T05:07:13;96417.81;;;10.07;42.33
32761;BME280;19126;47.472;7.850;2023-05-01T05:09:41;96422.09;;;10.08;42.62
32761;BME280;19126;47.472;7.850;2023-05-01T05:12:08;96415.00;;;10.08;42.85
32761;BME280;19126;47.472;7.850;2023-05-01T05:14:37;96417.47;;;10.10;42.78
32761;BME280;19126;47.472;7.850;2023-05-01T05:17:05;96424.53;;;10.09;43.23
32761;BME280;19126;47.472;7.850;2023-05-01T05:19:32;96426.44;;;10.16;42.52
32761;BME280;19126;47.472;7.850;2023-05-01T05:22:01;96429.25;;;10.14;42.34
32761;BME280;19126;47.472;7.850;2023-05-01T05:24:29;96431.69;;;10.16;43.02
32761;BME280;19126;47.472;7.850;2023-05-01T05:26:57;96424.66;;;10.16;41.67
32761;BME280;19126;47.472;7.850;2023-05-01T05:29:24;96427.72;;;10.20;42.47
32761;BME280;19126;47.472;7.850;2023-05-01T05:31:53;96426.28;;;10.17;42.92
32761;BME280;19126;47.472;7.850;2023-05-01T05:34:22;96430.19;;;10.21;43.64
32761;BME280;19126;47.472;7.850;2023-05-01T05:36:49;96427.72;;;10.20;43.79
32761;BME280;19126;47.472;7.850;2023-05-01T05:39:17;96432.16;;;10.19;43.67
32761;BME280;19126;47.472;7.850;2023-05-01T05:41:45;96429.91;;;10.16;43.36
32761;BME280;19126;47.472;7.850;2023-05-01T05:44:13;96429.06;;;10.16;43.09
32761;BME280;19126;47.472;7.850;2023-05-01T05:46:41;96435.16;;;10.16;41.15
32761;BME280;19126;47.472;7.850;2023-05-01T05:49:09;96431.69;;;10.16;40.92
32761;BME280;19126;47.472;7.850;2023-05-01T05:51:37;96433.16;;;10.18;40.17
32761;BME280;19126;47.472;7.850;2023-05-01T05:54:04;96423.31;;;10.20;39.17
32761;BME280;19126;47.472;7.850;2023-05-01T05:56:31;96426.63;;;10.14;38.43
32761;BME280;19126;47.472;7.850;2023-05-01T05:58:59;96421.53;;;10.12;37.06
32761;BME280;19126;47.472;7.850;2023-05-01T06:01:28;96425.44;;;10.17;35.33
32761;BME280;19126;47.472;7.850;2023-05-01T06:03:55;96421.84;;;10.18;33.23
32761;BME280;19126;47.472;7.850;2023-05-01T06:06:24;96421.97;;;10.24;32.61
32761;BME280;19126;47.472;7.850;2023-05-01T06:08:52;96419.41;;;10.31;30.76
32761;BME280;19126;47.472;7.850;2023-05-01T06:11:19;96413.97;;;10.41;28.88
32761;BME280;19126;47.472;7.850;2023-05-01T06:13:47;96412.91;;;10.50;27.87
32761;BME280;19126;47.472;7.850;2023-05-01T06:16:14;96418.22;;;10.57;26.53
32761;BME280;19126;47.472;7.850;2023-05-01T06:18:42;96417.34;;;10.65;26.01
32761;BME280;19126;47.472;7.850;2023-05-01T06:21:09;96416.47;;;10.73;25.18
32761;BME280;19126;47.472;7.850;2023-05-01T06:23:38;96422.81;;;10.78;23.99
32761;BME280;19126;47.472;7.850;2023-05-01T06:26:05;96424.91;;;10.83;23.95
32761;BME280;19126;47.472;7.850;2023-05-01T06:28:32;96427.16;;;10.86;24.36
32761;BME280;19126;47.472;7.850;2023-05-01T06:31:00;96426.44;;;10.92;25.42
32761;BME280;19126;47.472;7.850;2023-05-01T06:33:27;96424.19;;;10.89;27.06
32761;BME280;19126;47.472;7.850;2023-05-01T06:35:54;96429.44;;;10.89;28.68
32761;BME280;19126;47.472;7.850;2023-05-01T06:38:24;96430.50;;;10.95;29.07
32761;BME280;19126;47.472;7.850;2023-05-01T06:40:53;96431.34;;;10.95;30.15
32761;BME280;19126;47.472;7.850;2023-05-01T06:43:21;96432.78;;;10.98;30.83
32761;BME280;19126;47.472;7.850;2023-05-01T06:45:52;96430.63;;;11.02;32.36
32761;BME280;19126;47.472;7.850;2023-05-01T06:48:20;96431.50;;;11.09;33.09
32761;BME280;19126;47.472;7.850;2023-05-01T06:50:47;96434.41;;;11.14;33.34
32761;BME280;19126;47.472;7.850;2023-05-01T06:53:14;96441.22;;;11.23;34.02
32761;BME280;19126;47.472;7.850;2023-05-01T06:55:42;96440.00;;;11.26;34.85
32761;BME280;19126;47.472;7.850;2023-05-01T06:58:10;96439.47;;;11.31;39.60
32761;BME280;19126;47.472;7.850;2023-05-01T07:00:38;96442.38;;;11.36;44.34
32761;BME280;19126;47.472;7.850;2023-05-01T07:03:05;96454.31;;;11.38;46.68
32761;BME280;19126;47.472;7.850;2023-05-01T07:05:32;96448.91;;;11.40;46.38
32761;BME280;19126;47.472;7.850;2023-05-01T07:07:59;96450.59;;;11.48;44.65
32761;BME280;19126;47.472;7.850;2023-05-01T07:10:27;96459.31;;;11.48;45.16
32761;BME280;19126;47.472;7.850;2023-05-01T07:12:55;96459.94;;;11.50;46.19
32761;BME280;19126;47.472;7.850;2023-05-01T07:15:24;96454.47;;;11.52;45.73
32761;BME280;19126;47.472;7.850;2023-05-01T07:17:51;96458.69;;;11.46;45.42
32761;BME280;19126;47.472;7.850;2023-05-01T07:20:18;96455.69;;;11.34;44.95
32761;BME280;19126;47.472;7.850;2023-05-01T07:22:46;96460.22;;;11.40;44.49
32761;BME280;19126;47.472;7.850;2023-05-01T07:25:13;96465.31;;;11.42;42.56
32761;BME280;19126;47.472;7.850;2023-05-01T07:27:40;96460.41;;;11.39;41.94
32761;BME280;19126;47.472;7.850;2023-05-01T07:30:09;96465.47;;;11.40;40.65
32761;BME280;19126;47.472;7.850;2023-05-01T07:32:38;96463.47;;;11.42;39.27
32761;BME280;19126;47.472;7.850;2023-05-01T07:35:06;96465.31;;;11.42;38.55
32761;BME280;19126;47.472;7.850;2023-05-01T07:37:34;96468.56;;;11.44;37.76
32761;BME280;19126;47.472;7.850;2023-05-01T07:40:01;96466.09;;;11.42;38.75
32761;BME280;19126;47.472;7.850;2023-05-01T07:42:29;96465.84;;;11.37;38.94
32761;BME280;19126;47.472;7.850;2023-05-01T07:44:56;96468.66;;;11.36;38.54
32761;BME280;19126;47.472;7.850;2023-05-01T07:47:24;96461.94;;;11.33;37.21
32761;BME280;19126;47.472;7.850;2023-05-01T07:49:53;96473.31;;;11.34;36.07
32761;BME280;19126;47.472;7.850;2023-05-01T07:52:21;96468.84;;;11.34;35.74
32761;BME280;19126;47.472;7.850;2023-05-01T07:54:49;96467.66;;;11.37;34.49
32761;BME280;19126;47.472;7.850;2023-05-01T07:57:16;96465.41;;;11.34;34.34
32761;BME280;19126;47.472;7.850;2023-05-01T07:59:44;96472.75;;;11.38;32.38
32761;BME280;19126;47.472;7.850;2023-05-01T08:02:11;96469.56;;;11.43;30.98
32761;BME280;19126;47.472;7.850;2023-05-01T08:04:39;96470.84;;;11.47;30.46
32761;BME280;19126;47.472;7.850;2023-05-01T08:07:07;96475.09;;;11.48;30.02
32761;BME280;19126;47.472;7.850;2023-05-01T08:09:35;96476.53;;;11.51;30.60
32761;BME280;19126;47.472;7.850;2023-05-01T08:12:02;96475.38;;;11.53;31.14
32761;BME280;19126;47.472;7.850;2023-05-01T08:14:30;96483.31;;;11.60;31.27
32761;BME280;19126;47.472;7.850;2023-05-01T08:16:57;96480.31;;;11.63;30.48
32761;BME280;19126;47.472;7.850;2023-05-01T08:19:25;96483.31;;;11.60;31.70
32761;BME280;19126;47.472;7.850;2023-05-01T08:21:52;96478.63;;;11.55;34.46
32761;BME280;19126;47.472;7.850;2023-05-01T08:24:21;96481.25;;;11.55;36.80
32761;BME280;19126;47.472;7.850;2023-05-01T08:26:49;96476.88;;;11.63;36.71
32761;BME280;19126;47.472;7.850;2023-05-01T08:29:17;96482.59;;;11.66;37.19
32761;BME280;19126;47.472;7.850;2023-05-01T08:31:45;96475.06;;;11.63;39.93
32761;BME280;19126;47.472;7.850;2023-05-01T08:34:12;96471.16;;;11.59;43.41
32761;BME280;19126;47.472;7.850;2023-05-01T08:36:39;96482.94;;;11.63;47.85
32761;BME280;19126;47.472;7.850;2023-05-01T08:39:07;96483.69;;;11.72;51.21
32761;BME280;19126;47.472;7.850;2023-05-01T08:41:37;96482.94;;;11.78;52.55
32761;BME280;19126;47.472;7.850;2023-05-01T08:44:05;96485.75;;;11.77;53.04
32761;BME280;19126;47.472;7.850;2023-05-01T08:46:43;96484.47;;;11.72;58.33
32761;BME280;19126;47.472;7.850;2023-05-01T08:49:15;96487.84;;;11.66;62.36
32761;BME280;19126;47.472;7.850;2023-05-01T08:51:45;96486.56;;;11.77;62.38
32761;BME280;19126;47.472;7.850;2023-05-01T08:54:14;96495.50;;;11.98;59.64
32761;BME280;19126;47.472;7.850;2023-05-01T08:56:43;96489.97;;;12.08;58.78
32761;BME280;19126;47.472;7.850;2023-05-01T08:59:13;96487.84;;;12.18;58.12
32761;BME280;19126;47.472;7.850;2023-05-01T09:01:41;96496.69;;;12.32;58.06
32761;BME280;19126;47.472;7.850;2023-05-01T09:04:10;96493.75;;;12.42;61.87
32761;BME280;19126;47.472;7.850;2023-05-01T09:06:38;96494.41;;;12.51;64.54
32761;BME280;19126;47.472;7.850;2023-05-01T09:09:05;96495.03;;;12.53;70.02
32761;BME280;19126;47.472;7.850;2023-05-01T09:11:33;96494.25;;;12.52;77.50
32761;BME280;19126;47.472;7.850;2023-05-01T09:14:02;96493.66;;;12.57;85.73
32761;BME280;19126;47.472;7.850;2023-05-01T09:16:30;96493.91;;;12.62;85.61
32761;BME280;19126;47.472;7.850;2023-05-01T09:18:58;96500.56;;;12.58;87.99
32761;BME280;19126;47.472;7.850;2023-05-01T09:21:26;96504.78;;;12.52;93.74
32761;BME280;19126;47.472;7.850;2023-05-01T09:23:56;96503.28;;;12.43;96.05
32761;BME280;19126;47.472;7.850;2023-05-01T09:26:24;96500.28;;;12.46;96.75
32761;BME280;19126;47.472;7.850;2023-05-01T09:28:51;96502.00;;;12.60;96.24
32761;BME280;19126;47.472;7.850;2023-05-01T09:31:25;96504.50;;;12.69;93.84
32761;BME280;19126;47.472;7.850;2023-05-01T09:33:57;96513.28;;;12.76;95.02
32761;BME280;19126;47.472;7.850;2023-05-01T09:36:26;96508.81;;;12.77;98.84
32761;BME280;19126;47.472;7.850;2023-05-01T09:38:54;96506.28;;;12.90;95.65
32761;BME280;19126;47.472;7.850;2023-05-01T09:41:22;96510.75;;;12.89;98.60
32761;BME280;19126;47.472;7.850;2023-05-01T09:43:52;96508.59;;;13.00;95.34
32761;BME280;19126;47.472;7.850;2023-05-01T09:46:20;96509.47;;;13.07;94.30
32761;BME280;19126;47.472;7.850;2023-05-01T09:48:55;96503.78;;;13.10;99.38
32761;BME280;19126;47.472;7.850;2023-05-01T09:51:25;96502.78;;;13.11;100.00
32761;BME280;19126;47.472;7.850;2023-05-01T09:53:55;96501.84;;;13.26;100.00
32761;BME280;19126;47.472;7.850;2023-05-01T09:56:24;96498.25;;;13.33;100.00
32761;BME280;19126;47.472;7.850;2023-05-01T09:58:53;96501.84;;;13.54;100.00
32761;BME280;19126;47.472;7.850;2023-05-01T10:01:37;96492.19;;;13.82;97.76
32761;BME280;19126;47.472;7.850;2023-05-01T10:04:06;96502.59;;;13.90;100.00
32761;BME280;19126;47.472;7.850;2023-05-01T10:06:34;96499.59;;;14.00;100.00
32761;BME280;19126;47.472;7.850;2023-05-01T10:09:03;96502.25;;;14.20;100.00
32761;BME280;19126;47.472;7.850;2023-05-01T10:11:47;96496.59;;;14.36;100.00
32761;BME280;19126;47.472;7.850;2023-05-01T10:14:15;96495.63;;;14.64;100.00
32761;BME280;19126;47.472;7.850;2023-05-01T10:16:44;96499.09;;;14.78;100.00
32761;BME280;19126;47.472;7.850;2023-05-01T10:19:15;96500.31;;;14.83;100.00
32761;BME280;19126;47.472;7.850;2023-05-01T10:21:43;96501.16;;;14.83;100.00
32761;BME280;19126;47.472;7.850;2023-05-01T10:24:10;96505.00;;;14.87;100.00
32761;BME280;19126;47.472;7.850;2023-05-01T10:26:41;96501.34;;;14.82;100.00
32761;BME280;19126;47.472;7.850;2023-05-01T10:29:09;96503.38;;;14.86;100.00
32761;BME280;19126;47.472;7.850;2023-05-01T10:31:38;96506.63;;;14.95;100.00
32761;BME280;19126;47.472;7.850;2023-05-01T10:34:06;96504.53;;;15.24;100.00
32761;BME280;19126;47.472;7.850;2023-05-01T10:36:39;96501.03;;;15.50;100.00
32761;BME280;19126;47.472;7.850;2023-05-01T10:39:28;96498.94;;;15.66;100.00
32761;BME280;19126;47.472;7.850;2023-05-01T10:42:06;96500.72;;;15.92;100.00
32761;BME280;19126;47.472;7.850;2023-05-01T10:44:36;96491.25;;;16.03;100.00
32761;BME280;19126;47.472;7.850;2023-05-01T10:47:43;96495.38;;;16.31;100.00
32761;BME280;19126;47.472;7.850;2023-05-01T10:50:12;96502.09;;;16.34;100.00
32761;BME280;19126;47.472;7.850;2023-05-01T10:53:24;96501.84;;;16.03;94.45
32761;BME280;19126;47.472;7.850;2023-05-01T10:55:51;96500.84;;;16.04;100.00
32761;BME280;19126;47.472;7.850;2023-05-01T10:58:54;96509.25;;;15.81;92.55
32761;BME280;19126;47.472;7.850;2023-05-01T11:01:29;96501.72;;;15.85;99.86
32761;BME280;19126;47.472;7.850;2023-05-01T11:03:58;96507.63;;;15.87;99.49
32761;BME280;19126;47.472;7.850;2023-05-01T11:06:26;96498.06;;;15.92;100.00
32761;BME280;19126;47.472;7.850;2023-05-01T11:08:55;96501.50;;;15.93;100.00
32761;BME280;19126;47.472;7.850;2023-05-01T11:11:45;96501.72;;;15.85;100.00
32761;BME280;19126;47.472;7.850;2023-05-01T11:14:16;96502.56;;;15.72;100.00
32761;BME280;19126;47.472;7.850;2023-05-01T11:16:45;96498.53;;;15.69;100.00
32761;BME280;19126;47.472;7.850;2023-05-01T11:19:45;96494.44;;;15.66;100.00
32761;BME280;19126;47.472;7.850;2023-05-01T11:22:15;96492.22;;;15.63;100.00
32761;BME280;19126;47.472;7.850;2023-05-01T11:24:45;96490.16;;;15.65;100.00
32761;BME280;19126;47.472;7.850;2023-05-01T11:27:14;96484.88;;;15.65;100.00
32761;BME280;19126;47.472;7.850;2023-05-01T11:29:44;96477.34;;;15.69;100.00
32761;BME280;19126;47.472;7.850;2023-05-01T11:32:25;96483.00;;;15.73;100.00
32761;BME280;19126;47.472;7.850;2023-05-01T11:34:53;96480.59;;;15.71;100.00
32761;BME280;19126;47.472;7.850;2023-05-01T11:37:40;96485.72;;;15.59;100.00
32761;BME280;19126;47.472;7.850;2023-05-01T11:40:18;96486.78;;;15.51;100.00
32761;BME280;19126;47.472;7.850;2023-05-01T11:42:46;96487.38;;;15.47;100.00
32761;BME280;19126;47.472;7.850;2023-05-01T11:45:18;96487.78;;;15.50;100.00
32761;BME280;19126;47.472;7.850;2023-05-01T11:47:46;96481.47;;;15.51;100.00
32761;BME280;19126;47.472;7.850;2023-05-01T11:50:13;96483.28;;;15.58;100.00
32761;BME280;19126;47.472;7.850;2023-05-01T11:52:43;96482.69;;;15.49;100.00
32761;BME280;19126;47.472;7.850;2023-05-01T11:55:11;96474.56;;;15.50;100.00
32761;BME280;19126;47.472;7.850;2023-05-01T11:57:47;96487.13;;;15.62;100.00
32761;BME280;19126;47.472;7.850;2023-05-01T12:00:25;96475.91;;;15.66;100.00
32761;BME280;19126;47.472;7.850;2023-05-01T12:02:58;96469.94;;;15.78;100.00
32761;BME280;19126;47.472;7.850;2023-05-01T12:05:26;96479.69;;;15.84;100.00
32761;BME280;19126;47.472;7.850;2023-05-01T12:08:10;96475.47;;;15.70;100.00
32761;BME280;19126;47.472;7.850;2023-05-01T12:10:41;96475.94;;;15.60;100.00
32761;BME280;19126;47.472;7.850;2023-05-01T12:13:12;96474.09;;;15.60;100.00
32761;BME280;19126;47.472;7.850;2023-05-01T12:15:42;96469.06;;;15.45;100.00
32761;BME280;19126;47.472;7.850;2023-05-01T12:18:11;96478.44;;;15.41;100.00
32761;BME280;19126;47.472;7.850;2023-05-01T12:20:41;96483.16;;;15.39;100.00
32761;BME280;19126;47.472;7.850;2023-05-01T12:23:11;96483.75;;;15.41;100.00
32761;BME280;19126;47.472;7.850;2023-05-01T12:25:41;96486.59;;;15.39;100.00
32761;BME280;19126;47.472;7.850;2023-05-01T12:28:12;96468.28;;;15.38;100.00
32761;BME280;19126;47.472;7.850;2023-05-01T12:30:41;96483.72;;;15.55;100.00
32761;BME280;19126;47.472;7.850;2023-05-01T12:33:12;96479.03;;;15.50;100.00
32761;BME280;19126;47.472;7.850;2023-05-01T12:35:40;96476.00;;;15.46;100.00
32761;BME280;19126;47.472;7.850;2023-05-01T12:38:12;96480.03;;;15.49;97.11
32761;BME280;19126;47.472;7.850;2023-05-01T12:40:50;96469.69;;;15.47;98.22
32761;BME280;19126;47.472;7.850;2023-05-01T12:43:20;96463.94;;;15.57;100.00
32761;BME280;19126;47.472;7.850;2023-05-01T12:45:51;96477.09;;;15.71;99.78
32761;BME280;19126;47.472;7.850;2023-05-01T12:48:19;96473.59;;;15.83;100.00
32761;BME280;19126;47.472;7.850;2023-05-01T12:50:47;96479.28;;;16.01;97.09
32761;BME280;19126;47.472;7.850;2023-05-01T12:53:19;96480.03;;;16.08;91.17
32761;BME280;19126;47.472;7.850;2023-05-01T12:55:50;96484.25;;;16.16;93.66
32761;BME280;19126;47.472;7.850;2023-05-01T12:58:19;96477.91;;;16.23;95.60
32761;BME280;19126;47.472;7.850;2023-05-01T13:00:49;96473.66;;;16.48;92.07
32761;BME280;19126;47.472;7.850;2023-05-01T13:03:23;96478.03;;;16.86;94.36
32761;BME280;19126;47.472;7.850;2023-05-01T13:05:55;96470.38;;;16.96;86.59
32761;BME280;19126;47.472;7.850;2023-05-01T13:08:30;96476.72;;;17.02;83.18
32761;BME280;19126;47.472;7.850;2023-05-01T13:10:59;96470.72;;;17.07;83.04
32761;BME280;19126;47.472;7.850;2023-05-01T13:13:32;96473.91;;;17.16;84.41
32761;BME280;19126;47.472;7.850;2023-05-01T13:16:05;96474.81;;;17.28;83.58
32761;BME280;19126;47.472;7.850;2023-05-01T13:18:36;96466.69;;;17.04;79.60
32761;BME280;19126;47.472;7.850;2023-05-01T13:21:09;96466.25;;;17.07;80.37
32761;BME280;19126;47.472;7.850;2023-05-01T13:23:38;96464.28;;;16.96;78.65
32761;BME280;19126;47.472;7.850;2023-05-01T13:26:07;96462.06;;;16.93;77.73
32761;BME280;19126;47.472;7.850;2023-05-01T13:28:42;96454.75;;;16.88;78.90
32761;BME280;19126;47.472;7.850;2023-05-01T13:31:12;96457.19;;;16.90;80.49
32761;BME280;19126;47.472;7.850;2023-05-01T13:33:40;96458.06;;;16.83;79.31
32761;BME280;19126;47.472;7.850;2023-05-01T13:36:09;96460.72;;;16.83;81.33
32761;BME280;19126;47.472;7.850;2023-05-01T13:38:44;96456.44;;;16.82;81.73
32761;BME280;19126;47.472;7.850;2023-05-01T13:41:16;96442.75;;;16.85;81.55
32761;BME280;19126;47.472;7.850;2023-05-01T13:43:46;96446.78;;;16.88;85.34
32761;BME280;19126;47.472;7.850;2023-05-01T13:46:15;96444.97;;;16.89;80.01
32761;BME280;19126;47.472;7.850;2023-05-01T13:48:44;96441.28;;;16.90;79.94
32761;BME280;19126;47.472;7.850;2023-05-01T13:51:19;96437.22;;;16.87;79.08
32761;BME280;19126;47.472;7.850;2023-05-01T13:53:47;96444.72;;;16.90;81.43
32761;BME280;19126;47.472;7.850;2023-05-01T13:56:14;96441.56;;;16.81;77.62
32761;BME280;19126;47.472;7.850;2023-05-01T13:58:41;96439.69;;;16.82;76.44
32761;BME280;19126;47.472;7.850;2023-05-01T14:01:16;96436.84;;;16.83;75.29
32761;BME280;19126;47.472;7.850;2023-05-01T14:03:46;96433.16;;;16.84;75.37
32761;BME280;19126;47.472;7.850;2023-05-01T14:06:14;96439.41;;;16.90;76.11
32761;BME280;19126;47.472;7.850;2023-05-01T14:08:42;96434.09;;;16.97;77.44
32761;BME280;19126;47.472;7.850;2023-05-01T14:11:11;96429.41;;;16.92;75.90
32761;BME280;19126;47.472;7.850;2023-05-01T14:13:41;96434.19;;;16.83;80.02
32761;BME280;19126;47.472;7.850;2023-05-01T14:16:15;96438.78;;;16.69;77.72
32761;BME280;19126;47.472;7.850;2023-05-01T14:18:45;96430.44;;;16.47;79.91
32761;BME280;19126;47.472;7.850;2023-05-01T14:21:15;96430.38;;;16.29;77.45